sensor_id;sensor_type;location;lat;lon;timestamp;temperature;humidity
20288;DHT22;10303;51.960;8.372;2023-04-23T00:01:28;14.00;99.90
20288;DHT22;10303;51.960;8.372;2023-04-23T00:03:59;14.20;99.90
20288;DHT22;10303;51.960;8.372;2023-04-23T00:06:27;14.10;99.90
20288;DHT22;10303;51.960;8.372;2023-04-23T00:08:56;14.10;99.90
20288;DHT22;10303;51.960;8.372;2023-04-23T00:11:26;14.00;99.90
20288;DHT22;10303;51.960;8.372;2023-04-23T00:13:52;14.10;99.90
20288;DHT22;10303;51.960;8.372;2023-04-23T00:16:19;14.00;99.90
20288;DHT22;10303;51.960;8.372;2023-04-23T00:18:46;14.00;99.90
20288;DHT22;10303;51.960;8.372;2023-04-23T00:21:12;14.10;99.90
20288;DHT22;10303;51.960;8.372;2023-04-23T00:23:38;13.80;99.90
20288;DHT22;10303;51.960;8.372;2023-04-23T00:26:04;14.00;99.90
20288;DHT22;10303;51.960;8.372;2023-04-23T00:28:30;14.00;99.90
20288;DHT22;10303;51.960;8.372;2023-04-23T00:30:56;14.00;99.90
20288;DHT22;10303;51.960;8.372;2023-04-23T00:33:22;14.10;99.90
20288;DHT22;10303;51.960;8.372;2023-04-23T00:35:48;14.10;99.90
20288;DHT22;10303;51.960;8.372;2023-04-23T00:38:14;14.30;99.90
20288;DHT22;10303;51.960;8.372;2023-04-23T00:40:40;14.40;99.90
20288;DHT22;10303;51.960;8.372;2023-04-23T00:43:06;14.40;99.90
20288;DHT22;10303;51.960;8.372;2023-04-23T00:45:34;14.60;99.90
20288;DHT22;10303;51.960;8.372;2023-04-23T00:48:01;14.60;99.90
20288;DHT22;10303;51.960;8.372;2023-04-23T00:50:28;14.60;99.90
20288;DHT22;10303;51.960;8.372;2023-04-23T00:52:54;14.70;99.90
20288;DHT22;10303;51.960;8.372;2023-04-23T00:55:20;14.80;99.90
20288;DHT22;10303;51.960;8.372;2023-04-23T00:57:46;14.90;99.90
20288;DHT22;10303;51.960;8.372;2023-04-23T01:00:13;15.00;99.90
20288;DHT22;10303;51.960;8.372;2023-04-23T01:02:41;14.90;99.90
20288;DHT22;10303;51.960;8.372;2023-04-23T01:05:09;15.10;99.90
20288;DHT22;10303;51.960;8.372;2023-04-23T01:07:37;15.20;99.90
20288;DHT22;10303;51.960;8.372;2023-04-23T01:10:04;15.20;99.90
20288;DHT22;10303;51.960;8.372;2023-04-23T01:12:31;15.20;99.90
20288;DHT22;10303;51.960;8.372;2023-04-23T01:14:57;15.00;99.90
20288;DHT22;10303;51.960;8.372;2023-04-23T01:17:24;15.00;99.90
20288;DHT22;10303;51.960;8.372;2023-04-23T01:19:51;15.00;99.90
20288;DHT22;10303;51.960;8.372;2023-04-23T01:22:18;15.10;99.90
20288;DHT22;10303;51.960;8.372;2023-04-23T01:24:44;14.90;99.90
20288;DHT22;10303;51.960;8.372;2023-04-23T01:27:10;14.80;99.90
20288;DHT22;10303;51.960;8.372;2023-04-23T01:29:37;15.00;99.90
20288;DHT22;10303;51.960;8.372;2023-04-23T01:32:04;14.80;99.90
20288;DHT22;10303;51.960;8.372;2023-04-23T01:34:31;14.80;99.90
20288;DHT22;10303;51.960;8.372;2023-04-23T01:36:58;14.70;99.90
20288;DHT22;10303;51.960;8.372;2023-04-23T01:39:25;14.50;99.90
20288;DHT22;10303;51.960;8.372;2023-04-23T01:41:52;14.40;99.90
20288;DHT22;10303;51.960;8.372;2023-04-23T01:44:18;14.30;99.90
20288;DHT22;10303;51.960;8.372;2023-04-23T01:46:45;14.30;99.90
20288;DHT22;10303;51.960;8.372;2023-04-23T01:49:13;14.30;99.90
20288;DHT22;10303;51.960;8.372;2023-04-23T01:51:40;14.20;99.90
20288;DHT22;10303;51.960;8.372;2023-04-23T01:54:07;14.30;99.90
20288;DHT22;10303;51.960;8.372;2023-04-23T01:56:33;14.30;99.90
20288;DHT22;10303;51.960;8.372;2023-04-23T01:59:00;14.20;99.90
20288;DHT22;10303;51.960;8.372;2023-04-23T02:01:43;14.40;99.90
20288;DHT22;10303;51.960;8.372;2023-04-23T02:04:12;14.40;99.90
20288;DHT22;10303;51.960;8.372;2023-04-23T02:06:40;14.20;99.90
20288;DHT22;10303;51.960;8.372;2023-04-23T02:09:08;14.40;99.90
20288;DHT22;10303;51.960;8.372;2023-04-23T02:11:34;14.10;99.90
20288;DHT22;10303;51.960;8.372;2023-04-23T02:14:01;13.90;99.90
20288;DHT22;10303;51.960;8.372;2023-04-23T02:16:28;13.90;99.90
20288;DHT22;10303;51.960;8.372;2023-04-23T02:18:55;13.60;99.90
20288;DHT22;10303;51.960;8.372;2023-04-23T02:21:24;13.50;99.90
20288;DHT22;10303;51.960;8.372;2023-04-23T02:23:52;13.60;99.90
20288;DHT22;10303;51.960;8.372;2023-04-23T02:26:18;13.50;99.90
20288;DHT22;10303;51.960;8.372;2023-04-23T02:28:45;13.40;99.90
20288;DHT22;10303;51.960;8.372;2023-04-23T02:31:11;13.40;99.90
20288;DHT22;10303;51.960;8.372;2023-04-23T02:33:40;13.30;99.90
20288;DHT22;10303;51.960;8.372;2023-04-23T02:36:07;13.30;99.90
20288;DHT22;10303;51.960;8.372;2023-04-23T02:38:35;13.50;99.90
20288;DHT22;10303;51.960;8.372;2023-04-23T02:41:01;13.40;99.90
20288;DHT22;10303;51.960;8.372;2023-04-23T02:43:27;13.10;99.90
20288;DHT22;10303;51.960;8.372;2023-04-23T02:45:52;13.10;99.90
20288;DHT22;10303;51.960;8.372;2023-04-23T02:48:18;13.20;99.90
20288;DHT22;10303;51.960;8.372;2023-04-23T02:50:46;13.30;99.90
20288;DHT22;10303;51.960;8.372;2023-04-23T02:53:12;13.30;99.90
20288;DHT22;10303;51.960;8.372;2023-04-23T02:55:38;13.30;99.90
20288;DHT22;10303;51.960;8.372;2023-04-23T02:58:04;13.20;99.90
20288;DHT22;10303;51.960;8.372;2023-04-23T03:00:32;13.20;99.90
20288;DHT22;10303;51.960;8.372;2023-04-23T03:02:58;13.20;99.90
20288;DHT22;10303;51.960;8.372;2023-04-23T03:05:24;13.30;99.90
20288;DHT22;10303;51.960;8.372;2023-04-23T03:07:50;13.30;99.90
20288;DHT22;10303;51.960;8.372;2023-04-23T03:10:16;13.40;99.90
20288;DHT22;10303;51.960;8.372;2023-04-23T03:12:42;13.40;99.90
20288;DHT22;10303;51.960;8.372;2023-04-23T03:15:09;13.60;99.90
20288;DHT22;10303;51.960;8.372;2023-04-23T03:17:36;13.70;99.90
20288;DHT22;10303;51.960;8.372;2023-04-23T03:20:05;13.80;99.90
20288;DHT22;10303;51.960;8.372;2023-04-23T03:22:32;13.90;99.90
20288;DHT22;10303;51.960;8.372;2023-04-23T03:24:57;13.90;99.90
20288;DHT22;10303;51.960;8.372;2023-04-23T03:27:24;13.90;99.90
20288;DHT22;10303;51.960;8.372;2023-04-23T03:29:50;13.90;99.90
20288;DHT22;10303;51.960;8.372;2023-04-23T03:32:17;13.90;99.90
20288;DHT22;10303;51.960;8.372;2023-04-23T03:34:43;14.00;99.90
20288;DHT22;10303;51.960;8.372;2023-04-23T03:37:09;14.10;99.90
20288;DHT22;10303;51.960;8.372;2023-04-23T03:39:37;14.10;99.90
20288;DHT22;10303;51.960;8.372;2023-04-23T03:42:03;14.10;99.90
20288;DHT22;10303;51.960;8.372;2023-04-23T03:44:30;14.20;99.90
20288;DHT22;10303;51.960;8.372;2023-04-23T03:46:56;14.20;99.90
20288;DHT22;10303;51.960;8.372;2023-04-23T03:49:22;14.20;99.90
20288;DHT22;10303;51.960;8.372;2023-04-23T03:51:49;14.20;99.90
20288;DHT22;10303;51.960;8.372;2023-04-23T03:54:15;14.30;99.90
20288;DHT22;10303;51.960;8.372;2023-04-23T03:57:01;14.30;99.90
20288;DHT22;10303;51.960;8.372;2023-04-23T03:59:32;14.30;99.90
20288;DHT22;10303;51.960;8.372;2023-04-23T04:01:59;14.30;99.90
20288;DHT22;10303;51.960;8.372;2023-04-23T04:04:25;14.30;99.90
20288;DHT22;10303;51.960;8.372;2023-04-23T04:06:51;14.30;99.90
20288;DHT22;10303;51.960;8.372;2023-04-23T04:09:17;14.30;99.90
20288;DHT22;10303;51.960;8.372;2023-04-23T04:11:43;14.30;99.90
20288;DHT22;10303;51.960;8.372;2023-04-23T04:14:09;14.30;99.90
20288;DHT22;10303;51.960;8.372;2023-04-23T04:16:35;14.30;99.90
20288;DHT22;10303;51.960;8.372;2023-04-23T04:19:02;14.30;99.90
20288;DHT22;10303;51.960;8.372;2023-04-23T04:21:28;14.30;99.90
20288;DHT22;10303;51.960;8.372;2023-04-23T04:23:55;14.30;99.90
20288;DHT22;10303;51.960;8.372;2023-04-23T04:26:21;14.30;99.90
20288;DHT22;10303;51.960;8.372;2023-04-23T04:28:47;14.30;99.90
20288;DHT22;10303;51.960;8.372;2023-04-23T04:31:13;14.30;99.90
20288;DHT22;10303;51.960;8.372;2023-04-23T04:33:40;14.30;99.90
20288;DHT22;10303;51.960;8.372;2023-04-23T04:36:06;14.30;99.90
20288;DHT22;10303;51.960;8.372;2023-04-23T04:38:35;14.30;99.90
20288;DHT22;10303;51.960;8.372;2023-04-23T04:41:04;14.30;99.90
20288;DHT22;10303;51.960;8.372;2023-04-23T04:43:32;14.30;99.90
20288;DHT22;10303;51.960;8.372;2023-04-23T04:45:59;14.30;99.90
20288;DHT22;10303;51.960;8.372;2023-04-23T04:48:25;14.30;99.90
20288;DHT22;10303;51.960;8.372;2023-04-23T04:50:52;14.30;99.90
20288;DHT22;10303;51.960;8.372;2023-04-23T04:53:18;14.20;99.90
20288;DHT22;10303;51.960;8.372;2023-04-23T04:55:44;14.20;99.90
20288;DHT22;10303;51.960;8.372;2023-04-23T04:58:09;14.20;99.90
20288;DHT22;10303;51.960;8.372;2023-04-23T05:00:35;14.10;99.90
20288;DHT22;10303;51.960;8.372;2023-04-23T05:03:02;14.20;99.90
20288;DHT22;10303;51.960;8.372;2023-04-23T05:05:29;14.20;99.90
20288;DHT22;10303;51.960;8.372;2023-04-23T05:07:56;14.10;99.90
20288;DHT22;10303;51.960;8.372;2023-04-23T05:10:27;14.10;99.90
20288;DHT22;10303;51.960;8.372;2023-04-23T05:12:58;14.10;99.90
20288;DHT22;10303;51.960;8.372;2023-04-23T05:15:25;14.00;99.90
20288;DHT22;10303;51.960;8.372;2023-04-23T05:17:52;14.00;99.90
20288;DHT22;10303;51.960;8.372;2023-04-23T05:20:19;14.00;99.90
20288;DHT22;10303;51.960;8.372;2023-04-23T05:22:46;14.00;99.90
20288;DHT22;10303;51.960;8.372;2023-04-23T05:25:12;14.00;99.90
20288;DHT22;10303;51.960;8.372;2023-04-23T05:27:39;13.90;99.90
20288;DHT22;10303;51.960;8.372;2023-04-23T05:30:09;13.90;99.90
20288;DHT22;10303;51.960;8.372;2023-04-23T05:32:36;13.90;99.90
20288;DHT22;10303;51.960;8.372;2023-04-23T05:35:03;13.90;99.90
20288;DHT22;10303;51.960;8.372;2023-04-23T05:37:30;13.90;99.90
20288;DHT22;10303;51.960;8.372;2023-04-23T05:39:56;13.90;99.90
20288;DHT22;10303;51.960;8.372;2023-04-23T05:42:23;13.90;99.90
20288;DHT22;10303;51.960;8.372;2023-04-23T05:44:49;13.90;99.90
20288;DHT22;10303;51.960;8.372;2023-04-23T05:47:15;13.90;99.90
20288;DHT22;10303;51.960;8.372;2023-04-23T05:49:41;13.90;99.90
20288;DHT22;10303;51.960;8.372;2023-04-23T05:52:07;13.90;99.90
20288;DHT22;10303;51.960;8.372;2023-04-23T05:54:33;13.90;99.90
20288;DHT22;10303;51.960;8.372;2023-04-23T05:56:59;13.90;99.90
20288;DHT22;10303;51.960;8.372;2023-04-23T05:59:25;13.90;99.90
20288;DHT22;10303;51.960;8.372;2023-04-23T06:01:51;13.90;99.90
20288;DHT22;10303;51.960;8.372;2023-04-23T06:04:17;14.00;99.90
20288;DHT22;10303;51.960;8.372;2023-04-23T06:06:44;14.00;99.90
20288;DHT22;10303;51.960;8.372;2023-04-23T06:09:10;14.00;99.90
20288;DHT22;10303;51.960;8.372;2023-04-23T06:11:37;14.00;99.90
20288;DHT22;10303;51.960;8.372;2023-04-23T06:14:03;14.00;99.90
20288;DHT22;10303;51.960;8.372;2023-04-23T06:16:30;14.00;99.90
20288;DHT22;10303;51.960;8.372;2023-04-23T06:18:56;14.10;99.90
20288;DHT22;10303;51.960;8.372;2023-04-23T06:21:22;14.10;99.90
20288;DHT22;10303;51.960;8.372;2023-04-23T06:23:49;14.20;99.90
20288;DHT22;10303;51.960;8.372;2023-04-23T06:26:16;14.20;99.90
20288;DHT22;10303;51.960;8.372;2023-04-23T06:28:44;14.20;99.90
20288;DHT22;10303;51.960;8.372;2023-04-23T06:31:25;14.30;99.90
20288;DHT22;10303;51.960;8.372;2023-04-23T06:33:52;14.30;99.90
20288;DHT22;10303;51.960;8.372;2023-04-23T06:36:19;14.30;99.90
20288;DHT22;10303;51.960;8.372;2023-04-23T06:38:45;14.40;99.90
20288;DHT22;10303;51.960;8.372;2023-04-23T06:41:11;14.40;99.90
20288;DHT22;10303;51.960;8.372;2023-04-23T06:43:37;14.40;99.90
20288;DHT22;10303;51.960;8.372;2023-04-23T06:46:19;14.50;99.90
20288;DHT22;10303;51.960;8.372;2023-04-23T06:48:45;14.50;99.90
20288;DHT22;10303;51.960;8.372;2023-04-23T06:51:11;14.60;99.90
20288;DHT22;10303;51.960;8.372;2023-04-23T06:53:37;14.60;99.90
20288;DHT22;10303;51.960;8.372;2023-04-23T06:56:03;14.70;99.90
20288;DHT22;10303;51.960;8.372;2023-04-23T06:58:29;14.80;99.90
20288;DHT22;10303;51.960;8.372;2023-04-23T07:01:00;14.80;99.90
20288;DHT22;10303;51.960;8.372;2023-04-23T07:03:30;14.90;99.90
20288;DHT22;10303;51.960;8.372;2023-04-23T07:05:56;14.90;99.90
20288;DHT22;10303;51.960;8.372;2023-04-23T07:08:22;15.00;99.90
20288;DHT22;10303;51.960;8.372;2023-04-23T07:10:48;15.10;99.90
20288;DHT22;10303;51.960;8.372;2023-04-23T07:13:15;15.20;99.90
20288;DHT22;10303;51.960;8.372;2023-04-23T07:15:42;15.30;99.90
20288;DHT22;10303;51.960;8.372;2023-04-23T07:18:08;15.30;99.90
20288;DHT22;10303;51.960;8.372;2023-04-23T07:20:35;15.40;99.90
20288;DHT22;10303;51.960;8.372;2023-04-23T07:23:01;15.50;99.90
20288;DHT22;10303;51.960;8.372;2023-04-23T07:25:29;15.50;99.90
20288;DHT22;10303;51.960;8.372;2023-04-23T07:27:56;15.60;99.90
20288;DHT22;10303;51.960;8.372;2023-04-23T07:30:23;15.70;99.90
20288;DHT22;10303;51.960;8.372;2023-04-23T07:32:50;15.70;99.90
20288;DHT22;10303;51.960;8.372;2023-04-23T07:35:17;15.80;99.90
20288;DHT22;10303;51.960;8.372;2023-04-23T07:37:43;15.90;99.90
20288;DHT22;10303;51.960;8.372;2023-04-23T07:40:09;15.90;99.90
20288;DHT22;10303;51.960;8.372;2023-04-23T07:42:35;15.90;99.90
20288;DHT22;10303;51.960;8.372;2023-04-23T07:45:01;16.00;99.90
20288;DHT22;10303;51.960;8.372;2023-04-23T07:47:27;16.00;99.90
20288;DHT22;10303;51.960;8.372;2023-04-23T07:49:53;16.10;99.90
20288;DHT22;10303;51.960;8.372;2023-04-23T07:52:19;16.20;99.90
20288;DHT22;10303;51.960;8.372;2023-04-23T07:54:45;16.20;99.90
20288;DHT22;10303;51.960;8.372;2023-04-23T07:57:12;16.40;99.90
20288;DHT22;10303;51.960;8.372;2023-04-23T07:59:38;16.40;99.90
20288;DHT22;10303;51.960;8.372;2023-04-23T08:02:04;16.60;99.90
20288;DHT22;10303;51.960;8.372;2023-04-23T08:04:31;16.60;99.90
20288;DHT22;10303;51.960;8.372;2023-04-23T08:06:58;16.70;99.90
20288;DHT22;10303;51.960;8.372;2023-04-23T08:09:24;16.80;99.90
20288;DHT22;10303;51.960;8.372;2023-04-23T08:11:51;16.90;99.90
20288;DHT22;10303;51.960;8.372;2023-04-23T08:14:18;17.00;99.90
20288;DHT22;10303;51.960;8.372;2023-04-23T08:16:44;17.20;99.90
20288;DHT22;10303;51.960;8.372;2023-04-23T08:19:10;17.30;99.90
20288;DHT22;10303;51.960;8.372;2023-04-23T08:21:37;17.40;99.90
20288;DHT22;10303;51.960;8.372;2023-04-23T08:24:04;17.60;99.90
20288;DHT22;10303;51.960;8.372;2023-04-23T08:26:33;17.70;99.90
20288;DHT22;10303;51.960;8.372;2023-04-23T08:29:00;17.90;99.90
20288;DHT22;10303;51.960;8.372;2023-04-23T08:31:27;18.00;99.90
20288;DHT22;10303;51.960;8.372;2023-04-23T08:33:54;18.20;99.90
20288;DHT22;10303;51.960;8.372;2023-04-23T08:36:20;18.40;99.90
20288;DHT22;10303;51.960;8.372;2023-04-23T08:38:46;18.60;99.90
20288;DHT22;10303;51.960;8.372;2023-04-23T08:41:13;18.70;99.90
20288;DHT22;10303;51.960;8.372;2023-04-23T08:43:46;18.80;99.90
20288;DHT22;10303;51.960;8.372;2023-04-23T08:46:17;19.00;99.90
20288;DHT22;10303;51.960;8.372;2023-04-23T08:48:44;19.10;99.90
20288;DHT22;10303;51.960;8.372;2023-04-23T08:51:15;19.30;99.90
20288;DHT22;10303;51.960;8.372;2023-04-23T08:53:44;19.40;99.90
20288;DHT22;10303;51.960;8.372;2023-04-23T08:56:16;19.50;99.90
20288;DHT22;10303;51.960;8.372;2023-04-23T08:58:44;19.80;99.90
20288;DHT22;10303;51.960;8.372;2023-04-23T09:01:11;19.90;99.90
20288;DHT22;10303;51.960;8.372;2023-04-23T09:03:39;20.00;99.90
20288;DHT22;10303;51.960;8.372;2023-04-23T09:06:07;20.20;99.90
20288;DHT22;10303;51.960;8.372;2023-04-23T09:08:33;20.20;99.90
20288;DHT22;10303;51.960;8.372;2023-04-23T09:11:00;20.30;99.90
20288;DHT22;10303;51.960;8.372;2023-04-23T09:13:29;20.40;99.90
20288;DHT22;10303;51.960;8.372;2023-04-23T09:15:56;20.50;99.90
20288;DHT22;10303;51.960;8.372;2023-04-23T09:18:22;20.60;99.90
20288;DHT22;10303;51.960;8.372;2023-04-23T09:20:48;20.70;99.90
20288;DHT22;10303;51.960;8.372;2023-04-23T09:23:15;20.70;99.90
20288;DHT22;10303;51.960;8.372;2023-04-23T09:25:41;20.70;99.90
20288;DHT22;10303;51.960;8.372;2023-04-23T09:28:07;20.70;99.90
20288;DHT22;10303;51.960;8.372;2023-04-23T09:30:45;20.70;99.90
20288;DHT22;10303;51.960;8.372;2023-04-23T09:33:16;20.60;99.90
20288;DHT22;10303;51.960;8.372;2023-04-23T09:35:42;20.70;99.90
20288;DHT22;10303;51.960;8.372;2023-04-23T09:38:08;20.60;99.90
20288;DHT22;10303;51.960;8.372;2023-04-23T09:40:35;20.80;99.90
20288;DHT22;10303;51.960;8.372;2023-04-23T09:43:03;20.90;99.90
20288;DHT22;10303;51.960;8.372;2023-04-23T09:45:30;20.80;99.90
20288;DHT22;10303;51.960;8.372;2023-04-23T09:47:58;20.80;99.90
20288;DHT22;10303;51.960;8.372;2023-04-23T09:50:35;21.00;99.90
20288;DHT22;10303;51.960;8.372;2023-04-23T09:53:08;21.20;99.90
20288;DHT22;10303;51.960;8.372;2023-04-23T09:55:36;21.40;99.90
20288;DHT22;10303;51.960;8.372;2023-04-23T09:58:11;21.60;99.90
20288;DHT22;10303;51.960;8.372;2023-04-23T10:00:40;21.70;99.90
20288;DHT22;10303;51.960;8.372;2023-04-23T10:03:07;21.90;99.90
20288;DHT22;10303;51.960;8.372;2023-04-23T10:05:43;22.10;99.90
20288;DHT22;10303;51.960;8.372;2023-04-23T10:08:09;22.30;99.90
20288;DHT22;10303;51.960;8.372;2023-04-23T10:10:38;22.40;99.90
20288;DHT22;10303;51.960;8.372;2023-04-23T10:13:05;22.60;99.90
20288;DHT22;10303;51.960;8.372;2023-04-23T10:15:32;22.60;99.90
20288;DHT22;10303;51.960;8.372;2023-04-23T10:17:58;22.60;99.90
20288;DHT22;10303;51.960;8.372;2023-04-23T10:20:25;22.70;99.90
20288;DHT22;10303;51.960;8.372;2023-04-23T10:22:53;22.70;99.90
20288;DHT22;10303;51.960;8.372;2023-04-23T10:25:31;22.80;99.90
20288;DHT22;10303;51.960;8.372;2023-04-23T10:27:59;22.90;99.90
20288;DHT22;10303;51.960;8.372;2023-04-23T10:30:29;23.10;99.90
20288;DHT22;10303;51.960;8.372;2023-04-23T10:32:56;23.20;99.90
20288;DHT22;10303;51.960;8.372;2023-04-23T10:35:24;23.30;98.80
20288;DHT22;10303;51.960;8.372;2023-04-23T10:37:52;23.40;98.60
20288;DHT22;10303;51.960;8.372;2023-04-23T10:40:25;23.60;97.00
20288;DHT22;10303;51.960;8.372;2023-04-23T10:42:55;23.70;97.00
20288;DHT22;10303;51.960;8.372;2023-04-23T10:45:21;23.60;95.90
20288;DHT22;10303;51.960;8.372;2023-04-23T10:47:47;23.50;96.70
20288;DHT22;10303;51.960;8.372;2023-04-23T10:50:23;23.60;96.40
20288;DHT22;10303;51.960;8.372;2023-04-23T10:52:51;23.50;95.60
20288;DHT22;10303;51.960;8.372;2023-04-23T10:55:23;23.40;95.20
20288;DHT22;10303;51.960;8.372;2023-04-23T10:58:01;23.30;95.10
20288;DHT22;10303;51.960;8.372;2023-04-23T11:03:35;23.00;96.30
20288;DHT22;10303;51.960;8.372;2023-04-23T11:06:05;22.90;96.70
20288;DHT22;10303;51.960;8.372;2023-04-23T11:08:34;22.90;96.80
20288;DHT22;10303;51.960;8.372;2023-04-23T11:11:02;22.80;97.10
20288;DHT22;10303;51.960;8.372;2023-04-23T11:13:32;22.80;97.40
20288;DHT22;10303;51.960;8.372;2023-04-23T11:16:21;22.70;96.70
20288;DHT22;10303;51.960;8.372;2023-04-23T11:18:58;22.60;96.10
20288;DHT22;10303;51.960;8.372;2023-04-23T11:21:54;22.50;96.50
20288;DHT22;10303;51.960;8.372;2023-04-23T11:24:26;22.40;96.70
20288;DHT22;10303;51.960;8.372;2023-04-23T11:26:54;22.40;97.40
20288;DHT22;10303;51.960;8.372;2023-04-23T11:29:22;22.40;96.90
20288;DHT22;10303;51.960;8.372;2023-04-23T11:31:50;22.40;97.30
20288;DHT22;10303;51.960;8.372;2023-04-23T11:34:17;22.50;97.00
20288;DHT22;10303;51.960;8.372;2023-04-23T11:36:43;22.50;96.90
20288;DHT22;10303;51.960;8.372;2023-04-23T11:39:10;22.50;97.10
20288;DHT22;10303;51.960;8.372;2023-04-23T11:41:37;22.60;97.30
20288;DHT22;10303;51.960;8.372;2023-04-23T11:44:03;22.70;97.30
20288;DHT22;10303;51.960;8.372;2023-04-23T11:46:29;22.80;97.00
20288;DHT22;10303;51.960;8.372;2023-04-23T11:48:55;22.90;97.10
20288;DHT22;10303;51.960;8.372;2023-04-23T11:51:28;22.90;96.30
20288;DHT22;10303;51.960;8.372;2023-04-23T11:53:54;23.00;96.30
20288;DHT22;10303;51.960;8.372;2023-04-23T11:56:30;23.00;96.20
20288;DHT22;10303;51.960;8.372;2023-04-23T11:59:00;23.10;95.40
20288;DHT22;10303;51.960;8.372;2023-04-23T12:01:45;23.10;95.00
20288;DHT22;10303;51.960;8.372;2023-04-23T12:04:14;23.10;94.50
20288;DHT22;10303;51.960;8.372;2023-04-23T12:06:43;23.20;94.60
20288;DHT22;10303;51.960;8.372;2023-04-23T12:09:12;23.20;93.80
20288;DHT22;10303;51.960;8.372;2023-04-23T12:11:40;23.10;93.70
20288;DHT22;10303;51.960;8.372;2023-04-23T12:14:08;23.20;94.10
20288;DHT22;10303;51.960;8.372;2023-04-23T12:19:12;23.20;94.00
20288;DHT22;10303;51.960;8.372;2023-04-23T12:21:59;23.30;94.50
20288;DHT22;10303;51.960;8.372;2023-04-23T12:24:43;23.40;92.90
20288;DHT22;10303;51.960;8.372;2023-04-23T12:27:14;23.40;93.60
20288;DHT22;10303;51.960;8.372;2023-04-23T12:29:44;23.50;94.70
20288;DHT22;10303;51.960;8.372;2023-04-23T12:32:13;23.60;94.20
20288;DHT22;10303;51.960;8.372;2023-04-23T12:34:54;23.60;94.40
20288;DHT22;10303;51.960;8.372;2023-04-23T12:37:28;23.70;94.50
20288;DHT22;10303;51.960;8.372;2023-04-23T12:39:56;23.80;94.50
20288;DHT22;10303;51.960;8.372;2023-04-23T12:42:24;23.90;94.80
20288;DHT22;10303;51.960;8.372;2023-04-23T12:44:50;23.90;94.60
20288;DHT22;10303;51.960;8.372;2023-04-23T12:47:17;24.00;94.20
20288;DHT22;10303;51.960;8.372;2023-04-23T12:49:44;24.00;94.40
20288;DHT22;10303;51.960;8.372;2023-04-23T12:52:11;24.10;94.20
20288;DHT22;10303;51.960;8.372;2023-04-23T12:54:40;24.20;94.60
20288;DHT22;10303;51.960;8.372;2023-04-23T12:57:10;24.30;94.10
20288;DHT22;10303;51.960;8.372;2023-04-23T12:59:37;24.30;94.50
20288;DHT22;10303;51.960;8.372;2023-04-23T13:02:03;24.30;93.30
20288;DHT22;10303;51.960;8.372;2023-04-23T13:04:34;24.20;92.10
20288;DHT22;10303;51.960;8.372;2023-04-23T13:07:00;24.30;92.50
20288;DHT22;10303;51.960;8.372;2023-04-23T13:09:29;24.20;92.40
20288;DHT22;10303;51.960;8.372;2023-04-23T13:11:55;24.30;91.30
20288;DHT22;10303;51.960;8.372;2023-04-23T13:14:21;24.20;91.40
20288;DHT22;10303;51.960;8.372;2023-04-23T13:16:49;24.10;91.00
20288;DHT22;10303;51.960;8.372;2023-04-23T13:19:15;24.10;90.40
20288;DHT22;10303;51.960;8.372;2023-04-23T13:21:44;24.10;90.80
20288;DHT22;10303;51.960;8.372;2023-04-23T13:24:10;24.10;90.00
20288;DHT22;10303;51.960;8.372;2023-04-23T13:26:36;24.00;90.00
20288;DHT22;10303;51.960;8.372;2023-04-23T13:29:03;24.00;90.00
20288;DHT22;10303;51.960;8.372;2023-04-23T13:31:29;24.00;90.00
20288;DHT22;10303;51.960;8.372;2023-04-23T13:33:56;24.00;90.00
20288;DHT22;10303;51.960;8.372;2023-04-23T13:36:23;24.00;90.30
20288;DHT22;10303;51.960;8.372;2023-04-23T13:38:49;24.00;89.80
20288;DHT22;10303;51.960;8.372;2023-04-23T13:41:16;24.00;88.80
20288;DHT22;10303;51.960;8.372;2023-04-23T13:43:42;24.10;89.30
20288;DHT22;10303;51.960;8.372;2023-04-23T13:46:08;24.10;89.50
20288;DHT22;10303;51.960;8.372;2023-04-23T13:48:34;24.10;89.90
20288;DHT22;10303;51.960;8.372;2023-04-23T13:51:00;24.10;89.70
20288;DHT22;10303;51.960;8.372;2023-04-23T13:53:27;24.10;89.60
20288;DHT22;10303;51.960;8.372;2023-04-23T13:55:54;24.10;89.90
20288;DHT22;10303;51.960;8.372;2023-04-23T13:58:21;24.10;89.60
20288;DHT22;10303;51.960;8.372;2023-04-23T14:00:48;24.10;89.10
20288;DHT22;10303;51.960;8.372;2023-04-23T14:03:14;24.10;89.20
20288;DHT22;10303;51.960;8.372;2023-04-23T14:05:40;24.00;86.60
20288;DHT22;10303;51.960;8.372;2023-04-23T14:08:06;23.90;85.40
20288;DHT22;10303;51.960;8.372;2023-04-23T14:10:33;23.20;88.20
20288;DHT22;10303;51.960;8.372;2023-04-23T14:13:02;22.80;89.70
20288;DHT22;10303;51.960;8.372;2023-04-23T14:15:29;21.60;91.60
20288;DHT22;10303;51.960;8.372;2023-04-23T14:17:56;21.20;92.60
20288;DHT22;10303;51.960;8.372;2023-04-23T14:20:22;20.60;95.00
20288;DHT22;10303;51.960;8.372;2023-04-23T14:22:50;20.10;95.50
20288;DHT22;10303;51.960;8.372;2023-04-23T14:25:34;19.80;96.60
20288;DHT22;10303;51.960;8.372;2023-04-23T14:30:48;19.90;96.90
20288;DHT22;10303;51.960;8.372;2023-04-23T14:33:14;19.90;96.70
20288;DHT22;10303;51.960;8.372;2023-04-23T14:35:40;19.80;97.20
20288;DHT22;10303;51.960;8.372;2023-04-23T14:38:07;19.80;97.90
20288;DHT22;10303;51.960;8.372;2023-04-23T14:40:36;19.80;98.30
20288;DHT22;10303;51.960;8.372;2023-04-23T14:43:02;19.80;99.30
20288;DHT22;10303;51.960;8.372;2023-04-23T14:45:28;19.90;99.30
20288;DHT22;10303;51.960;8.372;2023-04-23T14:48:17;19.90;99.90
20288;DHT22;10303;51.960;8.372;2023-04-23T14:50:43;19.90;99.90
20288;DHT22;10303;51.960;8.372;2023-04-23T14:53:10;19.90;99.90
20288;DHT22;10303;51.960;8.372;2023-04-23T14:55:36;20.00;99.90
20288;DHT22;10303;51.960;8.372;2023-04-23T14:58:04;20.00;99.90
20288;DHT22;10303;51.960;8.372;2023-04-23T15:00:30;20.10;99.90
20288;DHT22;10303;51.960;8.372;2023-04-23T15:02:57;20.20;99.90
20288;DHT22;10303;51.960;8.372;2023-04-23T15:05:23;20.20;99.90
20288;DHT22;10303;51.960;8.372;2023-04-23T15:07:49;20.30;99.90
20288;DHT22;10303;51.960;8.372;2023-04-23T15:10:18;20.30;99.90
20288;DHT22;10303;51.960;8.372;2023-04-23T15:18:11;20.50;99.90
20288;DHT22;10303;51.960;8.372;2023-04-23T15:20:39;20.50;99.90
20288;DHT22;10303;51.960;8.372;2023-04-23T15:23:05;20.60;99.90
20288;DHT22;10303;51.960;8.372;2023-04-23T15:25:32;20.60;99.90
20288;DHT22;10303;51.960;8.372;2023-04-23T15:28:00;20.60;99.90
20288;DHT22;10303;51.960;8.372;2023-04-23T15:30:27;20.70;99.90
20288;DHT22;10303;51.960;8.372;2023-04-23T15:32:54;20.70;99.90
20288;DHT22;10303;51.960;8.372;2023-04-23T15:35:34;20.70;99.90
20288;DHT22;10303;51.960;8.372;2023-04-23T15:38:00;20.70;99.90
20288;DHT22;10303;51.960;8.372;2023-04-23T15:40:27;20.70;99.90
20288;DHT22;10303;51.960;8.372;2023-04-23T15:42:54;20.70;99.90
20288;DHT22;10303;51.960;8.372;2023-04-23T15:45:20;20.70;99.90
20288;DHT22;10303;51.960;8.372;2023-04-23T15:47:50;20.50;99.90